Terminal Aerodrome Forecast
Issued by NWS

Home | Current Version | Previous Version | Text Only | Print | Product List | Glossary On
Versions: 1 2 3 4 5 6 7 8 9 10 11 12 13 14
000
FTUS44 KLZK 161700
TAFLLQ
TAF
KLLQ 161724Z 1618/1718 03004KT P6SM SCT035 SCT120
     FM170000 00000KT P6SM SCT120
     FM170900 00000KT 3SM BR SKC
     FM171500 13004KT P6SM SCT025=

USA.gov is the U.S. government's official web portal to all federal, state and local government web resources and services.